sensor_id;sensor_type;location;lat;lon;timestamp;P1;durP1;ratioP1;P2;durP2;ratioP2
69621;SDS011;56841;55.964;37.674;2023-02-10T00:00:14;6.47;;;3.03;;
69621;SDS011;56841;55.964;37.674;2023-02-10T00:05:06;5.43;;;2.35;;
69621;SDS011;56841;55.964;37.674;2023-02-10T00:09:57;5.95;;;2.38;;
69621;SDS011;56841;55.964;37.674;2023-02-10T00:14:49;8.65;;;3.20;;
69621;SDS011;56841;55.964;37.674;2023-02-10T00:19:42;6.75;;;3.50;;
69621;SDS011;56841;55.964;37.674;2023-02-10T00:24:34;4.40;;;2.15;;
69621;SDS011;56841;55.964;37.674;2023-02-10T00:29:26;5.53;;;2.15;;
69621;SDS011;56841;55.964;37.674;2023-02-10T00:31:54;6.50;;;2.80;;
69621;SDS011;56841;55.964;37.674;2023-02-10T00:36:48;7.30;;;2.65;;
69621;SDS011;56841;55.964;37.674;2023-02-10T00:39:16;5.88;;;2.30;;
69621;SDS011;56841;55.964;37.674;2023-02-10T00:41:43;7.70;;;3.00;;
69621;SDS011;56841;55.964;37.674;2023-02-10T00:44:09;5.97;;;3.38;;
69621;SDS011;56841;55.964;37.674;2023-02-10T00:46:35;7.45;;;2.60;;
69621;SDS011;56841;55.964;37.674;2023-02-10T00:49:04;9.35;;;3.95;;
69621;SDS011;56841;55.964;37.674;2023-02-10T00:51:30;7.00;;;2.83;;
69621;SDS011;56841;55.964;37.674;2023-02-10T00:53:56;5.80;;;2.42;;
69621;SDS011;56841;55.964;37.674;2023-02-10T00:58:48;7.28;;;2.72;;
69621;SDS011;56841;55.964;37.674;2023-02-10T01:01:14;6.72;;;3.05;;
69621;SDS011;56841;55.964;37.674;2023-02-10T01:03:40;6.88;;;1.92;;
69621;SDS011;56841;55.964;37.674;2023-02-10T01:08:32;7.70;;;3.35;;
69621;SDS011;56841;55.964;37.674;2023-02-10T01:11:03;5.90;;;2.97;;
69621;SDS011;56841;55.964;37.674;2023-02-10T01:13:31;6.45;;;3.15;;
69621;SDS011;56841;55.964;37.674;2023-02-10T01:15:59;7.32;;;3.72;;
69621;SDS011;56841;55.964;37.674;2023-02-10T01:18:25;6.25;;;2.92;;
69621;SDS011;56841;55.964;37.674;2023-02-10T01:20:51;6.05;;;2.95;;
69621;SDS011;56841;55.964;37.674;2023-02-10T01:23:19;6.88;;;3.80;;
69621;SDS011;56841;55.964;37.674;2023-02-10T01:28:11;5.82;;;2.88;;
69621;SDS011;56841;55.964;37.674;2023-02-10T01:33:03;5.22;;;2.50;;
69621;SDS011;56841;55.964;37.674;2023-02-10T01:35:29;8.13;;;3.58;;
69621;SDS011;56841;55.964;37.674;2023-02-10T01:40:21;7.03;;;2.85;;
69621;SDS011;56841;55.964;37.674;2023-02-10T01:42:50;8.85;;;3.58;;
69621;SDS011;56841;55.964;37.674;2023-02-10T01:47:58;7.43;;;3.35;;
69621;SDS011;56841;55.964;37.674;2023-02-10T01:50:27;7.50;;;3.28;;
69621;SDS011;56841;55.964;37.674;2023-02-10T01:52:56;8.95;;;3.65;;
69621;SDS011;56841;55.964;37.674;2023-02-10T01:55:25;6.72;;;2.83;;
69621;SDS011;56841;55.964;37.674;2023-02-10T01:57:54;8.43;;;3.45;;
69621;SDS011;56841;55.964;37.674;2023-02-10T02:00:21;8.43;;;3.35;;
69621;SDS011;56841;55.964;37.674;2023-02-10T02:02:49;8.95;;;3.17;;
69621;SDS011;56841;55.964;37.674;2023-02-10T02:07:52;10.70;;;3.90;;
69621;SDS011;56841;55.964;37.674;2023-02-10T02:12:48;6.30;;;2.22;;
69621;SDS011;56841;55.964;37.674;2023-02-10T02:37:14;10.43;;;4.18;;
69621;SDS011;56841;55.964;37.674;2023-02-10T02:40:11;12.55;;;4.90;;
69621;SDS011;56841;55.964;37.674;2023-02-10T02:42:38;8.43;;;3.78;;
69621;SDS011;56841;55.964;37.674;2023-02-10T02:58:26;10.27;;;4.75;;
69621;SDS011;56841;55.964;37.674;2023-02-10T03:00:55;6.97;;;2.45;;
69621;SDS011;56841;55.964;37.674;2023-02-10T03:03:32;6.68;;;2.97;;
69621;SDS011;56841;55.964;37.674;2023-02-10T03:06:00;9.10;;;3.35;;
69621;SDS011;56841;55.964;37.674;2023-02-10T03:08:28;5.85;;;2.67;;
69621;SDS011;56841;55.964;37.674;2023-02-10T03:10:56;11.10;;;4.88;;
69621;SDS011;56841;55.964;37.674;2023-02-10T03:15:47;6.70;;;3.55;;
69621;SDS011;56841;55.964;37.674;2023-02-10T03:18:14;9.07;;;3.28;;
69621;SDS011;56841;55.964;37.674;2023-02-10T03:20:40;10.13;;;4.50;;
69621;SDS011;56841;55.964;37.674;2023-02-10T03:25:32;13.25;;;5.90;;
69621;SDS011;56841;55.964;37.674;2023-02-10T03:28:00;6.20;;;2.53;;
69621;SDS011;56841;55.964;37.674;2023-02-10T03:32:52;12.02;;;3.80;;
69621;SDS011;56841;55.964;37.674;2023-02-10T03:35:19;8.50;;;3.35;;
69621;SDS011;56841;55.964;37.674;2023-02-10T03:37:48;8.60;;;3.63;;
69621;SDS011;56841;55.964;37.674;2023-02-10T03:42:40;8.20;;;3.40;;
69621;SDS011;56841;55.964;37.674;2023-02-10T03:47:32;10.13;;;3.85;;
69621;SDS011;56841;55.964;37.674;2023-02-10T03:52:23;9.43;;;3.22;;
69621;SDS011;56841;55.964;37.674;2023-02-10T03:57:15;10.18;;;3.78;;
69621;SDS011;56841;55.964;37.674;2023-02-10T04:02:06;13.55;;;5.55;;
69621;SDS011;56841;55.964;37.674;2023-02-10T04:04:32;11.27;;;5.25;;
69621;SDS011;56841;55.964;37.674;2023-02-10T04:06:58;12.60;;;5.70;;
69621;SDS011;56841;55.964;37.674;2023-02-10T04:11:49;14.50;;;6.35;;
69621;SDS011;56841;55.964;37.674;2023-02-10T04:14:15;16.17;;;6.90;;
69621;SDS011;56841;55.964;37.674;2023-02-10T04:19:07;16.15;;;6.40;;
69621;SDS011;56841;55.964;37.674;2023-02-10T04:21:32;15.93;;;5.97;;
69621;SDS011;56841;55.964;37.674;2023-02-10T04:26:24;16.60;;;5.43;;
69621;SDS011;56841;55.964;37.674;2023-02-10T04:31:15;14.00;;;6.15;;
69621;SDS011;56841;55.964;37.674;2023-02-10T04:33:42;12.45;;;4.25;;
69621;SDS011;56841;55.964;37.674;2023-02-10T04:36:08;17.77;;;5.85;;
69621;SDS011;56841;55.964;37.674;2023-02-10T04:41:00;13.18;;;5.45;;
69621;SDS011;56841;55.964;37.674;2023-02-10T04:43:28;14.27;;;5.50;;
69621;SDS011;56841;55.964;37.674;2023-02-10T04:45:54;19.73;;;5.50;;
69621;SDS011;56841;55.964;37.674;2023-02-10T04:48:20;19.50;;;7.95;;
69621;SDS011;56841;55.964;37.674;2023-02-10T04:50:46;14.75;;;5.68;;
69621;SDS011;56841;55.964;37.674;2023-02-10T04:55:38;12.73;;;6.03;;
69621;SDS011;56841;55.964;37.674;2023-02-10T04:58:04;13.80;;;5.35;;
69621;SDS011;56841;55.964;37.674;2023-02-10T05:00:30;15.75;;;5.70;;
69621;SDS011;56841;55.964;37.674;2023-02-10T05:02:56;15.30;;;5.90;;
69621;SDS011;56841;55.964;37.674;2023-02-10T05:05:22;16.17;;;6.15;;
69621;SDS011;56841;55.964;37.674;2023-02-10T05:07:50;17.92;;;7.32;;
69621;SDS011;56841;55.964;37.674;2023-02-10T05:10:15;10.63;;;3.72;;
69621;SDS011;56841;55.964;37.674;2023-02-10T05:12:41;11.68;;;5.18;;
69621;SDS011;56841;55.964;37.674;2023-02-10T05:15:08;17.17;;;6.70;;
69621;SDS011;56841;55.964;37.674;2023-02-10T05:17:34;20.50;;;7.97;;
69621;SDS011;56841;55.964;37.674;2023-02-10T05:22:28;20.17;;;6.68;;
69621;SDS011;56841;55.964;37.674;2023-02-10T05:24:57;18.05;;;8.90;;
69621;SDS011;56841;55.964;37.674;2023-02-10T05:27:24;21.10;;;8.55;;
69621;SDS011;56841;55.964;37.674;2023-02-10T05:29:50;16.52;;;6.00;;
69621;SDS011;56841;55.964;37.674;2023-02-10T05:32:16;15.98;;;6.20;;
69621;SDS011;56841;55.964;37.674;2023-02-10T05:37:08;20.40;;;6.53;;
69621;SDS011;56841;55.964;37.674;2023-02-10T05:41:59;23.17;;;9.68;;
69621;SDS011;56841;55.964;37.674;2023-02-10T05:46:52;15.35;;;6.78;;
69621;SDS011;56841;55.964;37.674;2023-02-10T05:51:44;13.98;;;4.55;;
69621;SDS011;56841;55.964;37.674;2023-02-10T05:54:10;15.23;;;6.20;;
69621;SDS011;56841;55.964;37.674;2023-02-10T05:56:37;18.55;;;6.28;;
69621;SDS011;56841;55.964;37.674;2023-02-10T05:59:03;12.32;;;5.45;;
69621;SDS011;56841;55.964;37.674;2023-02-10T06:01:29;19.75;;;8.00;;
69621;SDS011;56841;55.964;37.674;2023-02-10T06:03:56;15.68;;;6.68;;
69621;SDS011;56841;55.964;37.674;2023-02-10T06:06:22;20.30;;;6.68;;
69621;SDS011;56841;55.964;37.674;2023-02-10T06:11:13;18.50;;;7.10;;
69621;SDS011;56841;55.964;37.674;2023-02-10T06:13:39;17.30;;;7.35;;
69621;SDS011;56841;55.964;37.674;2023-02-10T06:16:05;19.83;;;8.45;;
69621;SDS011;56841;55.964;37.674;2023-02-10T06:18:31;14.63;;;5.65;;
69621;SDS011;56841;55.964;37.674;2023-02-10T06:23:23;20.15;;;8.10;;
69621;SDS011;56841;55.964;37.674;2023-02-10T06:25:49;16.17;;;7.00;;
69621;SDS011;56841;55.964;37.674;2023-02-10T06:28:23;14.23;;;6.45;;
69621;SDS011;56841;55.964;37.674;2023-02-10T06:30:50;15.68;;;6.28;;
69621;SDS011;56841;55.964;37.674;2023-02-10T06:33:16;10.40;;;4.13;;
69621;SDS011;56841;55.964;37.674;2023-02-10T06:35:43;14.68;;;6.90;;
69621;SDS011;56841;55.964;37.674;2023-02-10T06:40:34;15.90;;;8.10;;
69621;SDS011;56841;55.964;37.674;2023-02-10T06:45:27;17.08;;;7.03;;
69621;SDS011;56841;55.964;37.674;2023-02-10T06:47:53;13.80;;;6.25;;
69621;SDS011;56841;55.964;37.674;2023-02-10T06:50:20;18.15;;;7.70;;
69621;SDS011;56841;55.964;37.674;2023-02-10T06:52:46;13.00;;;5.88;;
69621;SDS011;56841;55.964;37.674;2023-02-10T06:55:13;12.25;;;4.95;;
69621;SDS011;56841;55.964;37.674;2023-02-10T06:57:39;16.17;;;5.95;;
69621;SDS011;56841;55.964;37.674;2023-02-10T07:00:08;16.15;;;6.28;;
69621;SDS011;56841;55.964;37.674;2023-02-10T07:02:36;14.80;;;5.07;;
69621;SDS011;56841;55.964;37.674;2023-02-10T07:05:05;14.48;;;4.78;;
69621;SDS011;56841;55.964;37.674;2023-02-10T07:07:34;15.55;;;6.95;;
69621;SDS011;56841;55.964;37.674;2023-02-10T07:10:00;10.75;;;3.85;;
69621;SDS011;56841;55.964;37.674;2023-02-10T07:12:26;8.88;;;3.58;;
69621;SDS011;56841;55.964;37.674;2023-02-10T07:17:18;15.02;;;5.78;;
69621;SDS011;56841;55.964;37.674;2023-02-10T07:19:44;9.43;;;3.90;;
69621;SDS011;56841;55.964;37.674;2023-02-10T07:24:36;15.25;;;5.68;;
69621;SDS011;56841;55.964;37.674;2023-02-10T07:27:02;10.00;;;3.35;;
69621;SDS011;56841;55.964;37.674;2023-02-10T07:29:29;17.67;;;7.45;;
69621;SDS011;56841;55.964;37.674;2023-02-10T07:31:55;14.43;;;6.85;;
69621;SDS011;56841;55.964;37.674;2023-02-10T07:34:23;16.05;;;7.47;;
69621;SDS011;56841;55.964;37.674;2023-02-10T07:36:50;14.45;;;6.38;;
69621;SDS011;56841;55.964;37.674;2023-02-10T07:39:28;16.52;;;7.65;;
69621;SDS011;56841;55.964;37.674;2023-02-10T07:41:53;13.23;;;5.22;;
69621;SDS011;56841;55.964;37.674;2023-02-10T07:44:25;12.98;;;5.38;;
69621;SDS011;56841;55.964;37.674;2023-02-10T07:46:51;13.95;;;6.35;;
69621;SDS011;56841;55.964;37.674;2023-02-10T07:51:43;15.00;;;5.90;;
69621;SDS011;56841;55.964;37.674;2023-02-10T07:54:10;15.63;;;7.72;;
69621;SDS011;56841;55.964;37.674;2023-02-10T07:56:36;16.40;;;7.18;;
69621;SDS011;56841;55.964;37.674;2023-02-10T08:01:28;13.43;;;6.53;;
69621;SDS011;56841;55.964;37.674;2023-02-10T08:03:54;11.15;;;4.50;;
69621;SDS011;56841;55.964;37.674;2023-02-10T08:06:20;15.05;;;5.07;;
69621;SDS011;56841;55.964;37.674;2023-02-10T08:08:47;14.80;;;4.90;;
69621;SDS011;56841;55.964;37.674;2023-02-10T08:11:13;10.88;;;4.63;;
69621;SDS011;56841;55.964;37.674;2023-02-10T08:13:40;12.65;;;3.55;;
69621;SDS011;56841;55.964;37.674;2023-02-10T08:18:36;12.63;;;4.55;;
69621;SDS011;56841;55.964;37.674;2023-02-10T08:21:05;15.57;;;5.38;;
69621;SDS011;56841;55.964;37.674;2023-02-10T08:23:31;16.30;;;7.07;;
69621;SDS011;56841;55.964;37.674;2023-02-10T08:25:57;19.83;;;9.48;;
69621;SDS011;56841;55.964;37.674;2023-02-10T08:28:23;15.95;;;7.72;;
69621;SDS011;56841;55.964;37.674;2023-02-10T08:30:49;11.88;;;4.85;;
69621;SDS011;56841;55.964;37.674;2023-02-10T08:35:40;14.57;;;6.93;;
69621;SDS011;56841;55.964;37.674;2023-02-10T08:38:07;16.30;;;6.35;;
69621;SDS011;56841;55.964;37.674;2023-02-10T08:40:36;16.65;;;6.95;;
69621;SDS011;56841;55.964;37.674;2023-02-10T08:43:02;14.07;;;6.30;;
69621;SDS011;56841;55.964;37.674;2023-02-10T08:45:28;13.45;;;5.90;;
69621;SDS011;56841;55.964;37.674;2023-02-10T08:47:53;14.77;;;6.38;;
69621;SDS011;56841;55.964;37.674;2023-02-10T08:50:19;12.15;;;5.68;;
69621;SDS011;56841;55.964;37.674;2023-02-10T08:52:45;14.70;;;6.25;;
69621;SDS011;56841;55.964;37.674;2023-02-10T08:55:11;8.98;;;3.92;;
69621;SDS011;56841;55.964;37.674;2023-02-10T08:57:38;14.05;;;6.28;;
69621;SDS011;56841;55.964;37.674;2023-02-10T09:00:05;12.45;;;5.30;;
69621;SDS011;56841;55.964;37.674;2023-02-10T09:02:32;13.25;;;5.28;;
69621;SDS011;56841;55.964;37.674;2023-02-10T09:07:23;11.23;;;4.25;;
69621;SDS011;56841;55.964;37.674;2023-02-10T09:09:49;12.98;;;4.38;;
69621;SDS011;56841;55.964;37.674;2023-02-10T09:12:15;14.63;;;6.22;;
69621;SDS011;56841;55.964;37.674;2023-02-10T09:14:41;11.63;;;4.40;;
69621;SDS011;56841;55.964;37.674;2023-02-10T09:17:07;9.30;;;4.03;;
69621;SDS011;56841;55.964;37.674;2023-02-10T09:19:37;15.32;;;5.28;;
69621;SDS011;56841;55.964;37.674;2023-02-10T09:22:04;12.77;;;5.05;;
69621;SDS011;56841;55.964;37.674;2023-02-10T09:24:30;13.52;;;5.88;;
69621;SDS011;56841;55.964;37.674;2023-02-10T09:26:56;16.35;;;6.95;;
69621;SDS011;56841;55.964;37.674;2023-02-10T09:29:22;13.27;;;4.85;;
69621;SDS011;56841;55.964;37.674;2023-02-10T09:31:48;12.93;;;6.32;;
69621;SDS011;56841;55.964;37.674;2023-02-10T09:34:14;12.10;;;5.05;;
69621;SDS011;56841;55.964;37.674;2023-02-10T09:36:40;13.05;;;4.45;;
69621;SDS011;56841;55.964;37.674;2023-02-10T09:39:06;13.73;;;5.07;;
69621;SDS011;56841;55.964;37.674;2023-02-10T09:52:02;11.60;;;4.25;;
69621;SDS011;56841;55.964;37.674;2023-02-10T09:54:33;10.90;;;4.68;;
69621;SDS011;56841;55.964;37.674;2023-02-10T09:57:03;11.65;;;4.75;;
69621;SDS011;56841;55.964;37.674;2023-02-10T09:59:34;12.20;;;4.65;;
69621;SDS011;56841;55.964;37.674;2023-02-10T10:02:07;11.68;;;5.07;;
69621;SDS011;56841;55.964;37.674;2023-02-10T10:04:43;10.65;;;5.60;;
69621;SDS011;56841;55.964;37.674;2023-02-10T10:07:26;12.63;;;4.78;;
69621;SDS011;56841;55.964;37.674;2023-02-10T10:10:09;10.82;;;4.28;;
69621;SDS011;56841;55.964;37.674;2023-02-10T10:12:51;10.27;;;4.03;;
69621;SDS011;56841;55.964;37.674;2023-02-10T10:15:17;13.23;;;5.85;;
69621;SDS011;56841;55.964;37.674;2023-02-10T10:26:08;8.02;;;3.20;;
69621;SDS011;56841;55.964;37.674;2023-02-10T10:28:42;11.38;;;4.20;;
69621;SDS011;56841;55.964;37.674;2023-02-10T10:31:20;9.52;;;4.25;;
69621;SDS011;56841;55.964;37.674;2023-02-10T10:36:36;8.95;;;3.38;;
69621;SDS011;56841;55.964;37.674;2023-02-10T10:39:14;12.73;;;5.50;;
69621;SDS011;56841;55.964;37.674;2023-02-10T10:41:42;16.52;;;6.50;;
69621;SDS011;56841;55.964;37.674;2023-02-10T10:44:10;12.63;;;4.68;;
69621;SDS011;56841;55.964;37.674;2023-02-10T10:49:11;14.68;;;6.18;;
69621;SDS011;56841;55.964;37.674;2023-02-10T10:51:38;8.65;;;4.15;;
69621;SDS011;56841;55.964;37.674;2023-02-10T10:54:05;10.57;;;4.45;;
69621;SDS011;56841;55.964;37.674;2023-02-10T10:56:54;10.80;;;4.57;;
69621;SDS011;56841;55.964;37.674;2023-02-10T10:59:40;14.75;;;6.22;;
69621;SDS011;56841;55.964;37.674;2023-02-10T11:02:16;12.73;;;4.78;;
69621;SDS011;56841;55.964;37.674;2023-02-10T11:04:44;12.07;;;5.28;;
69621;SDS011;56841;55.964;37.674;2023-02-10T11:07:20;10.40;;;4.15;;
69621;SDS011;56841;55.964;37.674;2023-02-10T11:09:49;10.52;;;4.15;;
69621;SDS011;56841;55.964;37.674;2023-02-10T11:12:20;13.35;;;5.43;;
69621;SDS011;56841;55.964;37.674;2023-02-10T11:14:50;11.13;;;5.65;;
69621;SDS011;56841;55.964;37.674;2023-02-10T11:17:24;11.38;;;6.10;;
69621;SDS011;56841;55.964;37.674;2023-02-10T11:19:59;12.95;;;4.80;;
69621;SDS011;56841;55.964;37.674;2023-02-10T11:22:29;11.63;;;5.15;;
69621;SDS011;56841;55.964;37.674;2023-02-10T11:24:58;13.82;;;5.72;;
69621;SDS011;56841;55.964;37.674;2023-02-10T11:27:26;11.25;;;4.47;;
69621;SDS011;56841;55.964;37.674;2023-02-10T11:29:53;12.48;;;4.18;;
69621;SDS011;56841;55.964;37.674;2023-02-10T11:32:21;14.18;;;3.97;;
69621;SDS011;56841;55.964;37.674;2023-02-10T11:34:50;11.98;;;4.80;;
69621;SDS011;56841;55.964;37.674;2023-02-10T11:37:21;9.38;;;4.35;;
69621;SDS011;56841;55.964;37.674;2023-02-10T11:39:50;12.57;;;6.00;;
69621;SDS011;56841;55.964;37.674;2023-02-10T11:44:53;10.93;;;4.72;;
69621;SDS011;56841;55.964;37.674;2023-02-10T11:47:31;8.45;;;3.90;;
69621;SDS011;56841;55.964;37.674;2023-02-10T11:49:57;6.18;;;2.75;;
69621;SDS011;56841;55.964;37.674;2023-02-10T11:52:25;9.38;;;4.13;;
69621;SDS011;56841;55.964;37.674;2023-02-10T11:54:56;11.57;;;5.38;;
69621;SDS011;56841;55.964;37.674;2023-02-10T12:19:24;10.38;;;3.45;;
69621;SDS011;56841;55.964;37.674;2023-02-10T12:22:03;8.95;;;4.22;;
69621;SDS011;56841;55.964;37.674;2023-02-10T12:30:30;10.75;;;4.60;;
69621;SDS011;56841;55.964;37.674;2023-02-10T12:35:49;15.40;;;7.18;;
69621;SDS011;56841;55.964;37.674;2023-02-10T12:46:48;15.65;;;6.75;;
69621;SDS011;56841;55.964;37.674;2023-02-10T12:49:25;15.02;;;6.07;;
69621;SDS011;56841;55.964;37.674;2023-02-10T12:54:55;14.85;;;6.88;;
69621;SDS011;56841;55.964;37.674;2023-02-10T12:59:56;18.70;;;8.60;;
69621;SDS011;56841;55.964;37.674;2023-02-10T13:05:07;14.85;;;6.95;;
69621;SDS011;56841;55.964;37.674;2023-02-10T13:07:40;13.95;;;6.70;;
69621;SDS011;56841;55.964;37.674;2023-02-10T13:12:59;14.07;;;5.60;;
69621;SDS011;56841;55.964;37.674;2023-02-10T13:15:35;16.27;;;7.10;;
69621;SDS011;56841;55.964;37.674;2023-02-10T13:18:26;15.25;;;7.22;;
69621;SDS011;56841;55.964;37.674;2023-02-10T13:23:42;11.30;;;4.57;;
69621;SDS011;56841;55.964;37.674;2023-02-10T13:26:25;12.80;;;6.68;;
69621;SDS011;56841;55.964;37.674;2023-02-10T13:29:37;18.33;;;6.35;;
69621;SDS011;56841;55.964;37.674;2023-02-10T13:34:34;14.25;;;5.70;;
69621;SDS011;56841;55.964;37.674;2023-02-10T13:39:38;14.80;;;6.57;;
69621;SDS011;56841;55.964;37.674;2023-02-10T13:47:36;12.90;;;5.95;;
69621;SDS011;56841;55.964;37.674;2023-02-10T13:52:53;18.35;;;8.48;;
69621;SDS011;56841;55.964;37.674;2023-02-10T13:55:25;11.45;;;5.55;;
69621;SDS011;56841;55.964;37.674;2023-02-10T14:00:43;18.77;;;8.52;;
69621;SDS011;56841;55.964;37.674;2023-02-10T14:16:40;14.00;;;5.93;;
69621;SDS011;56841;55.964;37.674;2023-02-10T14:19:21;19.23;;;6.80;;
69621;SDS011;56841;55.964;37.674;2023-02-10T14:21:54;17.70;;;6.97;;
69621;SDS011;56841;55.964;37.674;2023-02-10T14:24:24;16.58;;;7.55;;
69621;SDS011;56841;55.964;37.674;2023-02-10T14:26:52;16.77;;;7.43;;
69621;SDS011;56841;55.964;37.674;2023-02-10T14:29:20;16.75;;;7.70;;
69621;SDS011;56841;55.964;37.674;2023-02-10T14:31:52;18.45;;;7.82;;
69621;SDS011;56841;55.964;37.674;2023-02-10T14:34:23;12.40;;;5.35;;
69621;SDS011;56841;55.964;37.674;2023-02-10T14:39:23;11.65;;;4.88;;
69621;SDS011;56841;55.964;37.674;2023-02-10T14:41:51;16.90;;;7.28;;
69621;SDS011;56841;55.964;37.674;2023-02-10T14:44:37;13.45;;;5.32;;
69621;SDS011;56841;55.964;37.674;2023-02-10T14:50:00;16.98;;;7.30;;
69621;SDS011;56841;55.964;37.674;2023-02-10T14:52:34;20.13;;;7.43;;
69621;SDS011;56841;55.964;37.674;2023-02-10T14:55:02;15.40;;;7.32;;
69621;SDS011;56841;55.964;37.674;2023-02-10T14:57:47;17.05;;;6.68;;
69621;SDS011;56841;55.964;37.674;2023-02-10T15:02:39;15.02;;;6.38;;
69621;SDS011;56841;55.964;37.674;2023-02-10T15:05:07;13.20;;;5.55;;
69621;SDS011;56841;55.964;37.674;2023-02-10T15:07:36;11.40;;;4.80;;
69621;SDS011;56841;55.964;37.674;2023-02-10T15:12:59;14.07;;;6.82;;
69621;SDS011;56841;55.964;37.674;2023-02-10T15:15:26;14.10;;;6.28;;
69621;SDS011;56841;55.964;37.674;2023-02-10T15:18:07;14.27;;;6.72;;
69621;SDS011;56841;55.964;37.674;2023-02-10T15:23:22;18.83;;;8.95;;
69621;SDS011;56841;55.964;37.674;2023-02-10T15:28:24;17.63;;;7.72;;
69621;SDS011;56841;55.964;37.674;2023-02-10T15:33:31;10.98;;;3.95;;
69621;SDS011;56841;55.964;37.674;2023-02-10T15:41:33;17.73;;;7.80;;
69621;SDS011;56841;55.964;37.674;2023-02-10T15:44:04;15.23;;;7.55;;
69621;SDS011;56841;55.964;37.674;2023-02-10T15:46:42;13.90;;;5.55;;
69621;SDS011;56841;55.964;37.674;2023-02-10T15:49:10;14.75;;;7.32;;
69621;SDS011;56841;55.964;37.674;2023-02-10T15:51:41;19.13;;;9.40;;
69621;SDS011;56841;55.964;37.674;2023-02-10T15:54:12;16.35;;;7.28;;
69621;SDS011;56841;55.964;37.674;2023-02-10T15:56:39;17.55;;;8.32;;
69621;SDS011;56841;55.964;37.674;2023-02-10T15:59:12;16.17;;;7.03;;
69621;SDS011;56841;55.964;37.674;2023-02-10T16:01:40;17.75;;;8.48;;
69621;SDS011;56841;55.964;37.674;2023-02-10T16:06:31;20.17;;;8.30;;
69621;SDS011;56841;55.964;37.674;2023-02-10T16:08:57;17.48;;;7.47;;
69621;SDS011;56841;55.964;37.674;2023-02-10T16:11:23;20.45;;;9.35;;
69621;SDS011;56841;55.964;37.674;2023-02-10T16:13:51;15.25;;;8.15;;
69621;SDS011;56841;55.964;37.674;2023-02-10T16:18:43;19.08;;;8.88;;
69621;SDS011;56841;55.964;37.674;2023-02-10T16:21:12;14.40;;;5.90;;
69621;SDS011;56841;55.964;37.674;2023-02-10T16:23:41;20.05;;;7.93;;
69621;SDS011;56841;55.964;37.674;2023-02-10T16:28:36;19.77;;;7.72;;
69621;SDS011;56841;55.964;37.674;2023-02-10T16:33:28;17.73;;;8.50;;
69621;SDS011;56841;55.964;37.674;2023-02-10T16:35:55;14.30;;;6.45;;
69621;SDS011;56841;55.964;37.674;2023-02-10T16:38:23;22.15;;;11.20;;
69621;SDS011;56841;55.964;37.674;2023-02-10T16:43:14;12.55;;;5.15;;
69621;SDS011;56841;55.964;37.674;2023-02-10T16:45:40;18.65;;;7.13;;
69621;SDS011;56841;55.964;37.674;2023-02-10T16:48:06;19.15;;;6.30;;
69621;SDS011;56841;55.964;37.674;2023-02-10T16:50:35;17.45;;;6.95;;
69621;SDS011;56841;55.964;37.674;2023-02-10T16:53:04;17.67;;;7.53;;
69621;SDS011;56841;55.964;37.674;2023-02-10T16:55:30;13.10;;;5.53;;
69621;SDS011;56841;55.964;37.674;2023-02-10T16:57:56;21.00;;;9.68;;
69621;SDS011;56841;55.964;37.674;2023-02-10T17:00:23;17.77;;;7.22;;
69621;SDS011;56841;55.964;37.674;2023-02-10T17:02:49;23.83;;;10.10;;
69621;SDS011;56841;55.964;37.674;2023-02-10T17:07:41;17.77;;;7.28;;
69621;SDS011;56841;55.964;37.674;2023-02-10T17:12:46;22.38;;;10.45;;
69621;SDS011;56841;55.964;37.674;2023-02-10T17:15:13;20.85;;;7.95;;
69621;SDS011;56841;55.964;37.674;2023-02-10T17:17:39;22.30;;;9.25;;
69621;SDS011;56841;55.964;37.674;2023-02-10T17:20:07;19.08;;;7.90;;
69621;SDS011;56841;55.964;37.674;2023-02-10T17:22:41;24.17;;;10.63;;
69621;SDS011;56841;55.964;37.674;2023-02-10T17:25:08;14.70;;;6.03;;
69621;SDS011;56841;55.964;37.674;2023-02-10T17:29:59;23.20;;;10.00;;
69621;SDS011;56841;55.964;37.674;2023-02-10T17:34:51;22.85;;;8.85;;
69621;SDS011;56841;55.964;37.674;2023-02-10T17:39:43;17.40;;;7.13;;
69621;SDS011;56841;55.964;37.674;2023-02-10T17:42:10;28.10;;;12.10;;
69621;SDS011;56841;55.964;37.674;2023-02-10T17:44:36;23.20;;;9.77;;
69621;SDS011;56841;55.964;37.674;2023-02-10T17:47:02;17.20;;;6.10;;
69621;SDS011;56841;55.964;37.674;2023-02-10T17:49:30;25.52;;;11.85;;
69621;SDS011;56841;55.964;37.674;2023-02-10T17:51:57;21.15;;;9.15;;
69621;SDS011;56841;55.964;37.674;2023-02-10T17:54:24;22.33;;;9.60;;
69621;SDS011;56841;55.964;37.674;2023-02-10T17:56:50;27.65;;;12.13;;
69621;SDS011;56841;55.964;37.674;2023-02-10T17:59:16;21.35;;;7.95;;
69621;SDS011;56841;55.964;37.674;2023-02-10T18:01:44;24.75;;;10.50;;
69621;SDS011;56841;55.964;37.674;2023-02-10T18:04:11;18.20;;;8.43;;
69621;SDS011;56841;55.964;37.674;2023-02-10T18:06:41;15.63;;;5.82;;
69621;SDS011;56841;55.964;37.674;2023-02-10T18:09:08;14.32;;;6.15;;
69621;SDS011;56841;55.964;37.674;2023-02-10T18:13:59;17.15;;;7.32;;
69621;SDS011;56841;55.964;37.674;2023-02-10T18:16:26;15.05;;;7.03;;
69621;SDS011;56841;55.964;37.674;2023-02-10T18:21:21;19.88;;;9.20;;
69621;SDS011;56841;55.964;37.674;2023-02-10T18:23:48;25.30;;;11.00;;
69621;SDS011;56841;55.964;37.674;2023-02-10T18:26:14;17.48;;;6.70;;
69621;SDS011;56841;55.964;37.674;2023-02-10T18:28:41;24.15;;;9.73;;
69621;SDS011;56841;55.964;37.674;2023-02-10T18:33:36;27.20;;;11.45;;
69621;SDS011;56841;55.964;37.674;2023-02-10T18:36:05;19.00;;;7.50;;
69621;SDS011;56841;55.964;37.674;2023-02-10T18:38:32;24.48;;;9.90;;
69621;SDS011;56841;55.964;37.674;2023-02-10T18:43:24;30.55;;;12.88;;
69621;SDS011;56841;55.964;37.674;2023-02-10T18:48:17;21.67;;;8.70;;
69621;SDS011;56841;55.964;37.674;2023-02-10T18:50:44;29.05;;;12.32;;
69621;SDS011;56841;55.964;37.674;2023-02-10T18:53:12;23.80;;;10.75;;
69621;SDS011;56841;55.964;37.674;2023-02-10T18:55:39;26.40;;;11.13;;
69621;SDS011;56841;55.964;37.674;2023-02-10T18:58:09;20.63;;;9.65;;
69621;SDS011;56841;55.964;37.674;2023-02-10T19:00:36;20.75;;;8.25;;
69621;SDS011;56841;55.964;37.674;2023-02-10T19:05:29;29.77;;;13.05;;
69621;SDS011;56841;55.964;37.674;2023-02-10T19:07:56;21.30;;;8.23;;
69621;SDS011;56841;55.964;37.674;2023-02-10T19:12:48;27.38;;;9.32;;
69621;SDS011;56841;55.964;37.674;2023-02-10T19:17:39;28.08;;;12.70;;
69621;SDS011;56841;55.964;37.674;2023-02-10T19:22:32;23.38;;;10.93;;
69621;SDS011;56841;55.964;37.674;2023-02-10T19:24:58;29.33;;;11.85;;
69621;SDS011;56841;55.964;37.674;2023-02-10T19:27:24;28.58;;;12.50;;
69621;SDS011;56841;55.964;37.674;2023-02-10T19:29:51;24.60;;;9.90;;
69621;SDS011;56841;55.964;37.674;2023-02-10T19:32:17;28.08;;;11.75;;
69621;SDS011;56841;55.964;37.674;2023-02-10T19:37:09;23.73;;;10.77;;
69621;SDS011;56841;55.964;37.674;2023-02-10T19:39:36;25.30;;;9.63;;
69621;SDS011;56841;55.964;37.674;2023-02-10T19:42:03;24.15;;;10.68;;
69621;SDS011;56841;55.964;37.674;2023-02-10T19:44:29;20.67;;;7.72;;
69621;SDS011;56841;55.964;37.674;2023-02-10T19:46:57;20.38;;;9.05;;
69621;SDS011;56841;55.964;37.674;2023-02-10T19:49:24;17.63;;;6.90;;
69621;SDS011;56841;55.964;37.674;2023-02-10T19:54:16;28.55;;;13.75;;
69621;SDS011;56841;55.964;37.674;2023-02-10T19:56:43;16.63;;;7.25;;
69621;SDS011;56841;55.964;37.674;2023-02-10T19:59:09;20.40;;;7.20;;